Tallahassee Regional Airport
KTLH : now visible

Airfield :











YOU CAN JOIN US ON...

 
LOGIN :

Register | Disclaimer

   EN    FR    IT 

 









Legend :    VFR   Marginal VFR   IFR   Intensive IFR   Very Intensive IFR
Visi :
Ceiling :
>= 8 km
>= 3000ft
5 to 8 km
1000 to 3000 ft
1500m to 5 km
500 to 1000 ft
800 to 1500m
200 to 500 ft
< 800m
< 200 ft
Symbols :   Thunderstorms  Fog  Heavy snow  Heavy precipitations  Wind > 20 kt







- Airport Elevation : 81 ft
- IATA code : TLH


KTLH - Tallahassee Regional

CURRENT METAR :
  • 161253Z 19005KT 10SM OVC004 17/17 A2985 RMK AO2 SLP108 T01720172

EXPIRED METARs :
  • 161239Z 20005KT 10SM OVC004 17/17 A2985 RMK AO2 T01720172
  • 161153Z 19005KT 10SM OVC006 17/17 A2985 RMK AO2 SLP107 T01670167 10172 20139 55004
  • 161053Z 20005KT 10SM OVC006 17/17 A2984 RMK AO2 SLP104 T01670167
  • 161033Z AUTO 20005KT 10SM OVC005 17/17 A2985 RMK AO2 T01670167
  • 160953Z AUTO 19005KT 10SM OVC003 17/17 A2984 RMK AO2 SLP102 T01670167

TAF KTLH
Valid from the 16 at 12:00 until the 17 at 12:00 UTC


161120Z 1612/1712 20003KT P6SM OVC003
FM161300 20005KT P6SM OVC015
FM161500 24007KT P6SM OVC040
FM170300 19002KT 6SM BR OVC015
FM170600 19003KT 1/2SM FG OVC003
KZJX FIR / North America



MET'MAP, your aeronautical weather chart ! - Copyright ORBIFLY December 2007 - Disclaimer

ORBIFLY MET'MAP TEAM :

Programming & Development : Alexandra Zaïnal
Concept & Development : Baudouin d'Aumeries
Co-Development & Prog : Marc-Olivier Méhu
Technical & hardware support : Manuel Goepfert

Contact : metmap@orbifly.com




SOURCES & CREDITS :

   NOAA       Earth
Advisory